Time;durP1;ratioP1;P1;durP2;ratioP2;P2;SDS_P1;SDS_P2;PMS_P1;PMS_P2;Temp;Humidity;BMP_temperature;BMP_pressure;BME280_temperature;BME280_humidity;BME280_pressure;Samples;Min_cycle;Max_cycle;Signal;HPM_P1;HPM_P2
2023/05/29 00:00:20;;;;;;;;;11.67;11.67;;;;;21.24;46.68;101003.06;4996562;28;45525;-56
2023/05/29 00:02:50;;;;;;;;;12.33;12.33;;;;;21.17;47.34;101005.34;4996808;28;45463;-56
2023/05/29 00:05:16;;;;;;;;;13.00;11.33;;;;;21.12;47.07;100995.97;4996437;28;46575;-52
2023/05/29 00:07:42;;;;;;;;;9.00;9.00;;;;;21.09;47.33;100998.81;4996584;28;45479;-55
2023/05/29 00:10:09;;;;;;;;;10.33;10.00;;;;;21.13;47.33;101008.34;4996588;28;45476;-54
2023/05/29 00:12:35;;;;;;;;;12.00;10.67;;;;;21.08;47.34;101006.00;4996702;28;45595;-56
2023/05/29 00:15:03;;;;;;;;;11.33;10.00;;;;;21.04;47.32;101004.53;4996249;28;45598;-56
2023/05/29 00:17:29;;;;;;;;;11.00;11.00;;;;;21.05;47.39;101019.59;4996542;28;45485;-56
2023/05/29 00:19:54;;;;;;;;;10.00;10.00;;;;;;;;4996601;28;45385;-55
2023/05/29 00:22:20;;;;;;;;;13.00;9.67;;;;;21.08;47.47;101013.19;4996468;28;45547;-54
2023/05/29 00:24:45;;;;;;;;;13.67;10.33;;;;;21.02;47.20;101010.97;4994831;28;46206;-54
2023/05/29 00:27:10;;;;;;;;;11.00;10.00;;;;;21.00;47.33;101013.72;4994578;28;45441;-53
2023/05/29 00:29:37;;;;;;;;;12.00;9.33;;;;;20.93;47.89;101021.34;4996580;28;45446;-53
2023/05/29 00:32:05;;;;;;;;;10.67;9.00;;;;;20.85;47.78;101013.03;4996216;28;45492;-57
2023/05/29 00:34:30;;;;;;;;;8.33;8.33;;;;;20.85;47.68;101013.03;4996331;28;45496;-55
2023/05/29 00:36:55;;;;;;;;;6.67;6.67;;;;;20.91;47.45;101014.41;4995686;28;58207;-54
2023/05/29 00:39:21;;;;;;;;;9.00;9.00;;;;;20.91;47.45;101004.56;4996275;28;45444;-56
2023/05/29 00:41:50;;;;;;;;;13.00;10.67;;;;;20.86;47.11;101009.38;4996319;28;45440;-54
2023/05/29 00:44:21;;;;;;;;;13.33;10.67;;;;;20.79;47.54;101000.09;4994962;28;46257;-55
2023/05/29 00:46:49;;;;;;;;;11.67;11.67;;;;;20.79;47.70;100999.25;4996025;28;45480;-55
2023/05/29 00:49:16;;;;;;;;;11.00;9.00;;;;;20.71;47.42;100989.97;4996606;28;45519;-55
2023/05/29 00:51:43;;;;;;;;;8.00;6.33;;;;;20.77;47.95;101001.16;4996056;28;45513;-56
2023/05/29 00:54:12;;;;;;;;;10.33;9.67;;;;;20.72;47.47;100985.47;4995634;28;46604;-55
2023/05/29 00:56:44;;;;;;;;;13.33;10.00;;;;;20.76;47.70;100994.97;4995862;28;45383;-53
2023/05/29 00:59:12;;;;;;;;;14.67;10.67;;;;;20.72;47.83;100998.84;4996002;28;45440;-57
2023/05/29 01:01:39;;;;;;;;;9.33;9.00;;;;;20.69;47.74;100999.91;4995663;28;45591;-52
2023/05/29 01:04:06;;;;;;;;;10.33;10.00;;;;;20.55;47.67;100986.66;4994777;28;45405;-54
2023/05/29 01:06:35;;;;;;;;;12.00;10.00;;;;;20.60;47.61;101008.56;4995684;28;45519;-56
2023/05/29 01:09:00;;;;;;;;;10.33;9.33;;;;;20.49;47.76;100992.41;4995764;28;45413;-56
2023/05/29 01:11:44;;;;;;;;;8.67;8.67;;;;;20.50;47.92;100995.00;4994535;28;45575;-54
2023/05/29 01:14:17;;;;;;;;;10.00;9.33;;;;;20.43;47.70;100988.34;4981866;28;46793;-53
2023/05/29 01:16:55;;;;;;;;;11.33;10.33;;;;;20.48;47.59;100993.38;4995565;28;45385;-55
2023/05/29 01:19:29;;;;;;;;;9.00;8.00;;;;;20.50;47.94;100991.47;4995547;28;45468;-54
2023/05/29 01:22:09;;;;;;;;;13.67;11.00;;;;;20.48;47.81;100993.38;4995528;28;45500;-56
2023/05/29 01:24:48;;;;;;;;;9.33;9.00;;;;;20.49;47.35;100979.91;4995350;28;45516;-55
2023/05/29 01:27:17;;;;;;;;;11.67;10.00;;;;;20.50;47.56;100986.13;4995346;28;45477;-53
2023/05/29 01:29:43;;;;;;;;;9.67;9.67;;;;;20.43;47.59;100983.00;4995721;28;45399;-55
2023/05/29 01:32:09;;;;;;;;;10.67;10.33;;;;;20.43;47.61;100983.00;4995475;28;45389;-55
2023/05/29 01:34:34;;;;;;;;;12.00;9.00;;;;;20.37;48.01;100995.97;4995247;28;45469;-53
2023/05/29 01:37:00;;;;;;;;;9.00;9.00;;;;;20.29;47.97;100988.47;4995387;28;45430;-54
2023/05/29 01:39:26;;;;;;;;;10.33;10.00;;;;;20.37;47.60;100996.81;4995291;28;45441;-57
2023/05/29 01:41:53;;;;;;;;;9.33;9.33;;;;;20.37;47.61;100990.63;4995652;28;45587;-56
2023/05/29 01:44:20;;;;;;;;;8.67;8.00;;;;;20.31;48.06;100997.25;4994999;28;46429;-53
2023/05/29 01:46:45;;;;;;;;;9.33;9.33;;;;;20.27;48.20;100993.06;4995244;28;45526;-53
2023/05/29 01:49:12;;;;;;;;;9.00;8.67;;;;;20.26;48.24;101002.91;4995896;28;45399;-55
2023/05/29 01:51:41;;;;;;;;;9.67;9.67;;;;;20.23;48.02;101000.47;4995389;28;45444;-52
2023/05/29 01:54:07;;;;;;;;;11.33;9.00;;;;;20.13;48.22;100986.03;4994933;28;45360;-55
2023/05/29 01:56:33;;;;;;;;;9.33;9.33;;;;;20.20;48.22;101006.00;4995025;28;45389;-54
2023/05/29 01:59:00;;;;;;;;;9.67;9.00;;;;;20.19;48.31;100996.28;4995299;28;45587;-57
2023/05/29 02:01:26;;;;;;;;;11.00;11.00;;;;;20.12;48.60;100994.13;4995096;28;45417;-54
2023/05/29 02:03:52;;;;;;;;;10.33;9.67;;;;;20.05;48.40;100994.56;4976763;28;45584;-55
2023/05/29 02:06:17;;;;;;;;;13.33;11.00;;;;;20.05;49.13;100994.56;4995157;28;45515;-54
2023/05/29 02:08:42;;;;;;;;;10.00;10.00;;;;;20.03;48.64;101001.81;4995011;28;45545;-56
2023/05/29 02:11:08;;;;;;;;;8.67;8.00;;;;;19.99;49.07;100988.81;4995174;28;45632;-55
2023/05/29 02:13:34;;;;;;;;;9.67;9.67;;;;;19.95;48.44;100993.47;4995095;28;45774;-54
2023/05/29 02:15:59;;;;;;;;;11.00;10.00;;;;;19.88;48.90;100997.53;4998442;28;45445;-57
2023/05/29 02:18:25;;;;;;;;;11.00;9.67;;;;;19.81;49.09;100989.09;4998301;28;45346;-56
2023/05/29 02:20:51;;;;;;;;;10.33;10.33;;;;;19.85;49.35;100987.03;4998313;28;45385;-54
2023/05/29 02:23:16;;;;;;;;;10.33;9.33;;;;;19.82;49.39;100992.59;4998092;28;46148;-57
2023/05/29 02:25:42;;;;;;;;;10.00;9.67;;;;;19.85;49.26;100995.06;4998116;28;45504;-53
2023/05/29 02:28:07;;;;;;;;;11.00;10.00;;;;;19.77;49.32;100992.06;4998296;28;45525;-53
2023/05/29 02:30:33;;;;;;;;;12.33;10.67;;;;;19.69;49.24;100997.06;4998042;28;45634;-53
2023/05/29 02:32:58;;;;;;;;;12.67;11.00;;;;;19.66;49.35;100990.09;4998152;28;45642;-55
2023/05/29 02:35:24;;;;;;;;;9.67;9.67;;;;;19.68;49.31;101006.88;4997973;28;45554;-55
2023/05/29 02:37:50;;;;;;;;;10.33;8.67;;;;;19.65;49.57;101004.38;4998241;28;45471;-55
2023/05/29 02:40:16;;;;;;;;;9.00;6.00;;;;;19.65;49.52;100999.06;4997860;28;45493;-56
2023/05/29 02:42:41;;;;;;;;;14.67;13.00;;;;;19.61;49.95;100995.75;4997759;28;46328;-55
2023/05/29 02:45:07;;;;;;;;;9.67;9.67;;;;;19.57;50.02;100999.56;4998238;28;45383;-58
2023/05/29 02:47:32;;;;;;;;;14.00;11.33;;;;;19.59;49.59;101008.31;4997998;28;45493;-52
2023/05/29 02:49:57;;;;;;;;;12.33;12.33;;;;;19.56;50.41;101007.69;4998686;28;45614;-54
2023/05/29 02:52:23;;;;;;;;;12.67;11.00;;;;;19.49;50.59;101007.22;4990292;28;61820;-54
2023/05/29 02:54:49;;;;;;;;;9.00;9.00;;;;;19.43;50.69;101011.16;4995920;28;45342;-55
2023/05/29 02:57:14;;;;;;;;;10.00;9.00;;;;;19.36;50.44;101008.97;4997827;28;45389;-55
2023/05/29 02:59:39;;;;;;;;;11.67;11.33;;;;;19.29;50.66;101003.22;4997654;28;46486;-55
2023/05/29 03:02:05;;;;;;;;;10.67;9.67;;;;;19.31;51.24;101008.44;4996211;28;58102;-55
2023/05/29 03:04:32;;;;;;;;;8.00;8.00;;;;;19.26;51.09;101007.88;4997426;28;45374;-51
2023/05/29 03:06:57;;;;;;;;;8.00;8.00;;;;;19.24;50.83;101015.13;4997825;28;45441;-53
2023/05/29 03:09:22;;;;;;;;;11.00;11.00;;;;;19.18;51.25;101005.69;4997527;28;45369;-56
2023/05/29 03:11:49;;;;;;;;;11.00;9.67;;;;;19.16;51.37;101024.47;4997570;28;45512;-54
2023/05/29 03:14:15;;;;;;;;;10.67;10.00;;;;;19.09;51.71;101012.47;4997671;28;45495;-54
2023/05/29 03:16:40;;;;;;;;;11.33;11.33;;;;;19.08;51.71;101009.94;4997381;28;45642;-52
2023/05/29 03:19:07;;;;;;;;;10.67;10.67;;;;;19.00;52.02;101007.75;4997792;28;45468;-54
2023/05/29 03:21:32;;;;;;;;;10.33;10.33;;;;;18.99;51.50;101024.69;4997429;28;46526;-53
2023/05/29 03:23:58;;;;;;;;;10.33;9.00;;;;;19.02;52.02;101027.19;4997173;28;45552;-55
2023/05/29 03:26:23;;;;;;;;;10.00;7.67;;;;;18.95;52.01;101017.84;4996437;28;45404;-55
2023/05/29 03:28:48;;;;;;;;;12.67;10.33;;;;;18.96;52.26;101025.72;4997496;28;45447;-56
2023/05/29 03:31:14;;;;;;;;;9.33;9.33;;;;;19.00;51.90;101026.41;4996861;28;58097;-56
2023/05/29 03:33:39;;;;;;;;;7.67;7.67;;;;;19.04;51.73;101027.91;4997188;28;45663;-54
2023/05/29 03:36:05;;;;;;;;;15.00;12.33;;;;;19.05;51.93;101021.66;4996958;28;54376;-57
2023/05/29 03:38:30;;;;;;;;;10.00;10.00;;;;;19.05;52.22;101023.44;4995770;28;45480;-51
2023/05/29 03:40:55;;;;;;;;;14.00;11.67;;;;;18.96;52.14;101027.56;4996844;28;52654;-59
2023/05/29 03:43:21;;;;;;;;;11.00;11.00;;;;;18.86;52.44;101029.09;4997276;28;45318;-57
2023/05/29 03:45:46;;;;;;;;;9.67;9.00;;;;;18.82;52.65;101030.25;4997286;28;45432;-56
2023/05/29 03:48:11;;;;;;;;;10.33;10.33;;;;;18.84;52.58;101031.84;4997069;28;45433;-58
2023/05/29 03:50:37;;;;;;;;;10.67;10.67;;;;;18.75;52.85;101027.97;4997550;28;45514;-56
2023/05/29 03:53:02;;;;;;;;;10.67;10.67;;;;;18.73;52.81;101029.00;4979106;28;45485;-57
2023/05/29 03:55:28;;;;;;;;;14.00;12.33;;;;;18.76;52.95;101048.31;4996999;28;45401;-55
2023/05/29 03:57:53;;;;;;;;;12.00;9.00;;;;;18.71;52.81;101045.06;4997175;28;45601;-53
2023/05/29 04:00:18;;;;;;;;;9.67;9.67;;;;;18.57;53.36;101044.22;4996773;28;46050;-54
2023/05/29 04:02:44;;;;;;;;;12.33;11.67;;;;;18.57;53.31;101046.88;4996442;28;45495;-54
2023/05/29 04:05:10;;;;;;;;;12.33;12.33;;;;;18.53;53.41;101055.03;4996902;28;45452;-58
2023/05/29 04:07:39;;;;;;;;;11.67;10.00;;;;;18.49;53.33;101053.53;4996863;28;45417;-56
2023/05/29 04:10:06;;;;;;;;;12.00;11.00;;;;;18.51;53.41;101061.41;4996697;28;46569;-53
2023/05/29 04:12:32;;;;;;;;;10.00;10.00;;;;;18.40;53.97;101051.41;4996539;28;45387;-55
2023/05/29 04:14:57;;;;;;;;;13.00;10.33;;;;;18.55;53.70;101053.13;4997006;28;45417;-56
2023/05/29 04:17:22;;;;;;;;;10.67;10.67;;;;;18.63;53.73;101062.47;4996579;28;45652;-56
2023/05/29 04:19:48;;;;;;;;;9.67;9.67;;;;;18.57;53.63;101060.19;4996301;28;45450;-58
2023/05/29 04:22:13;;;;;;;;;13.00;9.67;;;;;18.59;53.35;101068.94;4996845;28;45671;-53
2023/05/29 04:24:40;;;;;;;;;11.00;11.00;;;;;18.64;53.24;101072.16;4996219;28;46510;-53
2023/05/29 04:27:05;;;;;;;;;11.33;10.00;;;;;18.63;53.24;101071.31;4996647;28;45533;-53
2023/05/29 04:29:32;;;;;;;;;10.67;10.33;;;;;18.60;53.26;101073.31;4996284;28;46465;-52
2023/05/29 04:31:57;;;;;;;;;10.67;10.67;;;;;18.57;53.44;101076.19;4996609;28;45576;-56
2023/05/29 04:34:23;;;;;;;;;13.00;12.33;;;;;18.54;53.51;101082.56;4995175;28;45440;-54
2023/05/29 04:36:48;;;;;;;;;10.67;10.67;;;;;18.52;53.61;101079.13;4996475;28;45637;-57
2023/05/29 04:39:14;;;;;;;;;13.00;10.00;;;;;18.49;53.89;101080.16;4996411;28;46626;-53
2023/05/29 04:41:40;;;;;;;;;10.33;10.33;;;;;18.49;54.02;101089.97;4996382;28;45398;-55
2023/05/29 04:44:07;;;;;;;;;11.00;11.00;;;;;18.49;54.19;101093.47;4996554;28;45425;-56
2023/05/29 04:46:34;;;;;;;;;14.33;13.67;;;;;18.35;53.62;101071.28;4996067;28;45346;-58
2023/05/29 04:48:59;;;;;;;;;13.33;11.00;;;;;18.49;54.08;101092.63;4995350;28;47306;-57
2023/05/29 04:51:24;;;;;;;;;12.00;11.33;;;;;18.44;53.78;101097.38;4996067;28;45447;-53
2023/05/29 04:53:51;;;;;;;;;10.00;10.00;;;;;18.44;54.13;101113.34;4995990;28;45594;-56
2023/05/29 04:56:17;;;;;;;;;15.33;13.33;;;;;18.40;54.07;101107.34;4994982;28;45447;-57
2023/05/29 04:58:43;;;;;;;;;16.33;14.00;;;;;18.45;53.56;101104.41;4994907;28;45401;-54
2023/05/29 05:01:09;;;;;;;;;16.00;13.00;;;;;18.41;54.02;101097.56;4995735;28;45707;-55
2023/05/29 05:03:35;;;;;;;;;14.00;13.00;;;;;18.36;53.83;101110.28;4996200;28;45411;-55
2023/05/29 05:06:06;;;;;;;;;16.00;16.00;;;;;18.23;54.44;101113.66;4977687;28;45505;-54
2023/05/29 05:08:32;;;;;;;;;15.00;15.00;;;;;18.24;54.58;101115.41;4977801;28;46161;-56
2023/05/29 05:10:59;;;;;;;;;11.33;10.00;;;;;18.23;54.72;101103.03;4995598;28;45433;-57
2023/05/29 05:13:25;;;;;;;;;17.00;13.33;;;;;18.23;54.68;101113.66;4995880;28;45425;-55
2023/05/29 05:15:50;;;;;;;;;15.33;12.33;;;;;18.23;54.64;101113.66;4995898;28;45570;-58
2023/05/29 05:18:16;;;;;;;;;14.33;13.33;;;;;18.18;54.65;101102.44;4995786;28;45380;-56
2023/05/29 05:20:41;;;;;;;;;16.33;16.33;;;;;18.16;54.85;101108.78;4995708;28;45377;-57
2023/05/29 05:23:07;;;;;;;;;15.33;14.33;;;;;18.21;54.35;101106.72;4995650;28;45396;-54
2023/05/29 05:25:34;;;;;;;;;20.00;17.67;;;;;18.21;54.94;101125.34;4995693;28;45570;-60
2023/05/29 05:28:00;;;;;;;;;14.00;13.00;;;;;18.17;55.09;101121.19;4993532;28;46829;-56
2023/05/29 05:30:25;;;;;;;;;15.00;13.00;;;;;18.22;55.11;101124.44;4995630;28;45492;-55
2023/05/29 05:32:51;;;;;;;;;17.33;15.67;;;;;18.12;54.98;101107.28;4995728;28;45629;-56
2023/05/29 05:35:16;;;;;;;;;18.67;17.33;;;;;18.27;54.75;101127.69;4995050;28;45698;-57
2023/05/29 05:37:41;;;;;;;;;18.33;15.33;;;;;18.24;54.52;101126.06;4995485;28;46071;-54
2023/05/29 05:40:08;;;;;;;;;17.33;15.33;;;;;18.18;54.56;101117.56;4994970;28;52521;-57
2023/05/29 05:42:34;;;;;;;;;16.00;15.33;;;;;18.18;54.58;101133.53;4995635;28;45515;-53
2023/05/29 05:44:59;;;;;;;;;18.67;13.67;;;;;18.14;55.08;101129.34;4995208;28;45451;-57
2023/05/29 05:47:25;;;;;;;;;18.33;14.67;;;;;18.19;55.00;101130.78;4995406;28;46218;-56
2023/05/29 05:49:51;;;;;;;;;17.67;17.67;;;;;18.22;54.79;101138.59;4995245;28;45468;-55
2023/05/29 05:52:17;;;;;;;;;16.67;13.00;;;;;18.13;54.98;101133.78;4995431;28;45461;-53
2023/05/29 05:54:43;;;;;;;;;17.00;14.33;;;;;18.13;54.79;101120.47;4995421;28;45555;-55
2023/05/29 05:57:08;;;;;;;;;15.00;13.67;;;;;18.08;55.08;101125.22;4994786;28;51638;-56
2023/05/29 05:59:33;;;;;;;;;13.00;13.00;;;;;18.15;54.90;101134.56;4995045;28;49581;-57
2023/05/29 06:01:59;;;;;;;;;17.33;15.33;;;;;18.08;54.72;101141.19;4995231;28;45555;-55
2023/05/29 06:04:24;;;;;;;;;17.00;16.00;;;;;18.08;55.02;101143.84;4994702;28;50253;-58
2023/05/29 06:06:49;;;;;;;;;17.00;16.00;;;;;18.12;55.07;101149.88;4994968;28;54012;-53
2023/05/29 06:09:15;;;;;;;;;13.67;13.33;;;;;18.17;55.27;101140.66;4995119;28;45380;-54
2023/05/29 06:11:40;;;;;;;;;14.33;14.33;;;;;18.20;55.02;101136.97;4994952;28;45519;-56
2023/05/29 06:14:06;;;;;;;;;13.00;13.00;;;;;18.31;54.86;101138.03;4995183;28;45540;-55
2023/05/29 06:16:31;;;;;;;;;15.00;14.67;;;;;18.31;54.33;101150.50;4994642;28;46615;-55
2023/05/29 06:18:57;;;;;;;;;14.33;14.33;;;;;18.21;54.71;101136.00;4994925;28;45417;-53
2023/05/29 06:21:23;;;;;;;;;18.33;17.00;;;;;18.21;54.62;101146.66;4995006;28;45445;-56
2023/05/29 06:23:48;;;;;;;;;14.00;13.00;;;;;18.23;54.57;101142.97;4994901;28;45631;-54
2023/05/29 06:26:15;;;;;;;;;13.00;13.00;;;;;18.24;54.14;101149.13;4993151;28;45448;-55
2023/05/29 06:28:41;;;;;;;;;15.67;15.00;;;;;18.24;54.84;101152.69;4993936;28;45420;-52
2023/05/29 06:31:06;;;;;;;;;17.33;15.67;;;;;18.36;54.32;101153.75;4994919;28;45488;-57
2023/05/29 06:33:32;;;;;;;;;16.00;15.67;;;;;18.39;54.37;101152.72;4994917;28;45408;-53
2023/05/29 06:35:57;;;;;;;;;18.67;16.33;;;;;18.43;54.18;101162.22;4994815;28;45416;-57
2023/05/29 06:38:22;;;;;;;;;13.33;13.33;;;;;18.35;54.56;101159.16;4994436;28;45498;-57
2023/05/29 06:40:48;;;;;;;;;16.00;16.00;;;;;18.34;54.37;101158.31;4994884;28;45448;-56
2023/05/29 06:43:13;;;;;;;;;17.00;15.67;;;;;18.44;54.58;101171.94;4993550;28;45461;-57
2023/05/29 06:45:39;;;;;;;;;15.33;14.67;;;;;18.40;54.49;101165.06;4994742;28;45496;-58
2023/05/29 06:48:05;;;;;;;;;19.67;15.00;;;;;18.40;54.03;101167.75;4994641;28;45560;-56
2023/05/29 06:50:31;;;;;;;;;15.67;14.00;;;;;18.42;54.22;101168.50;4995025;28;45472;-54
2023/05/29 06:52:56;;;;;;;;;15.33;13.67;;;;;18.49;54.21;101169.88;4994564;28;45664;-57
2023/05/29 06:55:21;;;;;;;;;21.33;17.33;;;;;18.60;53.80;101171.91;4993824;28;62069;-56
2023/05/29 06:57:46;;;;;;;;;17.67;15.67;;;;;18.59;53.92;101164.84;4994277;28;51971;-54
2023/05/29 07:00:12;;;;;;;;;14.67;13.00;;;;;18.66;53.82;101175.03;4994021;28;51585;-56
2023/05/29 07:02:38;;;;;;;;;15.33;15.00;;;;;18.59;53.82;101176.38;4979961;28;45513;-57
2023/05/29 07:05:03;;;;;;;;;15.00;14.67;;;;;18.49;53.61;101177.88;4997553;28;46566;-57
2023/05/29 07:07:29;;;;;;;;;16.00;12.67;;;;;18.52;53.86;101186.53;4997723;28;45489;-57
2023/05/29 07:09:55;;;;;;;;;15.00;13.67;;;;;18.48;54.15;101171.69;4997818;28;45409;-55
2023/05/29 07:12:22;;;;;;;;;17.33;17.33;;;;;18.57;54.30;101172.94;4997881;28;45389;-52
2023/05/29 07:14:48;;;;;;;;;14.33;13.67;;;;;18.63;53.60;101175.22;4997713;28;45706;-56
2023/05/29 07:17:14;;;;;;;;;15.00;13.67;;;;;18.66;53.70;101179.50;4997677;28;45427;-54
2023/05/29 07:19:39;;;;;;;;;16.33;13.67;;;;;18.66;53.44;101172.38;4997514;28;45456;-56
2023/05/29 07:22:04;;;;;;;;;14.67;12.67;;;;;18.74;53.83;101171.91;4997639;28;45555;-52
2023/05/29 07:24:30;;;;;;;;;16.33;15.33;;;;;18.81;53.09;101172.44;4997100;28;45518;-56
2023/05/29 07:26:55;;;;;;;;;16.00;14.33;;;;;18.86;53.44;101175.66;4997468;28;45455;-52
2023/05/29 07:29:23;;;;;;;;;11.00;11.00;;;;;18.90;52.89;101178.06;4997826;28;45478;-57
2023/05/29 07:31:48;;;;;;;;;18.67;17.00;;;;;18.91;52.95;101184.25;4997292;28;45437;-55
2023/05/29 07:34:14;;;;;;;;;13.00;12.00;;;;;18.92;52.93;101181.50;4996922;28;46688;-56
2023/05/29 07:37:03;;;;;;;;;16.00;14.67;;;;;18.98;53.04;101180.25;4997041;28;45394;-56
2023/05/29 07:39:29;;;;;;;;;16.00;16.00;;;;;19.05;53.12;101184.28;4997494;28;45590;-55
2023/05/29 07:41:55;;;;;;;;;13.67;12.67;;;;;19.10;53.02;101187.53;4997117;28;45576;-55
2023/05/29 07:44:20;;;;;;;;;16.33;14.33;;;;;19.10;52.29;101187.53;4978745;28;47996;-57
2023/05/29 07:46:46;;;;;;;;;16.33;16.33;;;;;19.03;52.58;101178.19;4996852;28;45450;-52
2023/05/29 07:49:11;;;;;;;;;15.00;15.00;;;;;19.13;52.41;101198.00;4997778;28;45471;-52
2023/05/29 07:51:37;;;;;;;;;16.67;15.67;;;;;18.94;52.73;101160.06;4996897;28;45397;-55
2023/05/29 07:54:03;;;;;;;;;16.33;14.33;;;;;19.09;52.45;101192.94;4997014;28;45553;-56
2023/05/29 07:56:29;;;;;;;;;19.67;16.67;;;;;19.02;52.35;101178.25;4996844;28;45479;-54
2023/05/29 07:58:56;;;;;;;;;16.33;15.67;;;;;19.02;52.45;101181.81;4995496;28;45506;-55
2023/05/29 08:01:21;;;;;;;;;17.00;15.00;;;;;19.02;52.53;101184.47;4996923;28;45528;-57
2023/05/29 08:03:47;;;;;;;;;15.00;15.00;;;;;19.04;52.75;101181.69;4995367;28;46112;-56
2023/05/29 08:06:13;;;;;;;;;15.00;12.67;;;;;18.95;52.85;101169.78;4996646;28;45433;-56
2023/05/29 08:08:38;;;;;;;;;15.67;15.00;;;;;19.04;52.48;101179.03;4997021;28;45485;-56
2023/05/29 08:11:05;;;;;;;;;16.33;16.33;;;;;19.06;52.83;101183.31;4996670;28;45599;-55
2023/05/29 08:13:30;;;;;;;;;30.33;28.00;;;;;19.12;53.13;101174.94;4978541;28;47024;-55
2023/05/29 08:15:56;;;;;;;;;16.67;15.00;;;;;19.23;52.41;101178.75;4996499;28;45512;-52
2023/05/29 08:18:25;;;;;;;;;18.67;15.00;;;;;19.26;52.44;101182.06;4996436;28;45393;-55
2023/05/29 08:20:50;;;;;;;;;17.67;17.00;;;;;19.27;52.20;101178.47;4996191;28;45349;-54
2023/05/29 08:23:15;;;;;;;;;22.33;19.00;;;;;19.25;51.59;101174.19;4996105;28;45547;-57
2023/05/29 08:25:41;;;;;;;;;16.33;15.67;;;;;19.27;52.01;101174.94;4996254;28;45455;-54
2023/05/29 08:28:06;;;;;;;;;19.00;18.00;;;;;19.31;52.06;101179.13;4994850;28;45531;-54
2023/05/29 08:30:31;;;;;;;;;15.00;13.00;;;;;19.35;51.91;101186.84;4996560;28;45365;-53
2023/05/29 08:32:57;;;;;;;;;17.00;15.33;;;;;19.36;51.72;101185.03;4996169;28;45388;-52
2023/05/29 08:35:22;;;;;;;;;16.67;16.67;;;;;19.33;51.36;101182.56;4996415;28;45499;-53
2023/05/29 08:37:48;;;;;;;;;17.00;16.33;;;;;19.39;51.64;101187.50;4996330;28;45357;-55
2023/05/29 08:40:13;;;;;;;;;17.33;16.67;;;;;19.46;51.54;101194.16;4996030;28;45361;-55
2023/05/29 08:42:47;;;;;;;;;16.00;15.00;;;;;19.52;51.18;101187.59;4996139;28;45453;-56
2023/05/29 08:45:13;;;;;;;;;17.00;17.00;;;;;19.56;51.63;101205.13;4995813;28;45424;-53
2023/05/29 08:47:41;;;;;;;;;17.67;16.00;;;;;19.51;51.93;101181.41;4995929;28;45392;-57
2023/05/29 08:50:07;;;;;;;;;19.33;17.67;;;;;19.62;51.17;101189.56;4995063;28;45584;-55
2023/05/29 08:52:37;;;;;;;;;16.33;15.67;;;;;19.64;51.11;101197.50;4995830;28;45615;-54
2023/05/29 08:55:03;;;;;;;;;16.67;16.67;;;;;19.60;51.69;101188.81;4994602;28;45424;-56
2023/05/29 08:57:29;;;;;;;;;17.00;17.00;;;;;19.53;51.60;101159.94;4996117;28;45421;-56
2023/05/29 08:59:55;;;;;;;;;18.00;16.00;;;;;19.77;51.21;101186.88;4996080;28;45393;-56
2023/05/29 09:02:21;;;;;;;;;17.00;15.00;;;;;19.75;51.08;101189.69;4995415;28;45456;-54
2023/05/29 09:04:52;;;;;;;;;19.00;17.33;;;;;19.74;51.02;101179.94;4995534;28;45416;-57
2023/05/29 09:07:19;;;;;;;;;22.00;21.00;;;;;19.79;51.26;101188.50;4995945;28;45420;-55
2023/05/29 09:09:48;;;;;;;;;21.67;20.00;;;;;19.84;51.15;101186.41;4995714;28;45434;-52
2023/05/29 09:12:14;;;;;;;;;22.33;20.67;;;;;19.86;51.73;101183.66;4995411;28;45895;-56
2023/05/29 09:14:42;;;;;;;;;16.00;15.00;;;;;19.97;50.41;101183.78;4977637;28;45540;-56
2023/05/29 09:17:10;;;;;;;;;18.33;17.67;;;;;20.03;50.27;101194.06;4995861;28;45531;-55
2023/05/29 09:19:38;;;;;;;;;19.00;18.00;;;;;20.06;50.65;101190.34;4995515;28;45543;-54
2023/05/29 09:22:14;;;;;;;;;20.00;19.67;;;;;19.99;50.27;101181.88;4995592;28;45570;-53
2023/05/29 09:24:40;;;;;;;;;16.33;15.33;;;;;19.99;50.17;101184.56;4992973;28;45801;-54
2023/05/29 09:27:11;;;;;;;;;16.33;16.33;;;;;20.06;50.47;101187.66;4995652;28;45310;-56
2023/05/29 09:29:45;;;;;;;;;15.00;14.67;;;;;20.14;50.29;101195.19;4993987;28;45466;-56
2023/05/29 09:32:12;;;;;;;;;26.67;26.67;;;;;20.16;50.28;101190.59;4994645;28;45529;-55
2023/05/29 09:34:39;;;;;;;;;18.00;17.00;;;;;20.27;50.43;101188.91;4995253;28;45441;-54
2023/05/29 09:37:08;;;;;;;;;17.00;17.00;;;;;20.34;50.15;101192.06;4995627;28;45446;-57
2023/05/29 09:39:54;;;;;;;;;19.33;17.67;;;;;20.40;50.56;101193.44;4995288;28;45441;-52
2023/05/29 09:42:19;;;;;;;;;17.67;17.67;;;;;20.42;49.88;101184.38;4977144;28;46619;-53
2023/05/29 09:44:51;;;;;;;;;17.00;17.00;;;;;20.46;49.89;101188.53;4995224;28;45460;-54
2023/05/29 09:47:18;;;;;;;;;18.00;18.00;;;;;20.47;49.47;101184.03;4995507;28;45378;-53
2023/05/29 09:49:46;;;;;;;;;17.00;16.67;;;;;20.46;49.73;101166.31;4996251;28;45540;-54
2023/05/29 09:52:15;;;;;;;;;19.67;17.33;;;;;20.52;49.76;101188.16;4994996;28;45468;-57
2023/05/29 09:54:45;;;;;;;;;23.00;19.33;;;;;20.56;49.50;101183.47;4995461;28;45380;-56
2023/05/29 09:57:12;;;;;;;;;20.33;20.33;;;;;20.58;49.17;101189.56;4995372;28;45414;-52
2023/05/29 09:59:39;;;;;;;;;22.33;20.33;;;;;20.56;49.22;101186.16;4995204;28;45525;-55
2023/05/29 10:02:06;;;;;;;;;21.00;20.67;;;;;20.59;49.65;101185.09;4994908;28;45427;-57
2023/05/29 10:04:33;;;;;;;;;20.67;20.67;;;;;20.60;49.49;101192.13;4994875;28;45408;-54
2023/05/29 10:07:04;;;;;;;;;21.33;21.00;;;;;20.61;49.08;101189.38;4994737;28;45458;-51
2023/05/29 10:09:30;;;;;;;;;20.67;17.67;;;;;20.66;49.19;101179.22;4994515;28;45555;-56
2023/05/29 10:12:00;;;;;;;;;18.67;18.67;;;;;20.70;48.90;101178.03;4994583;28;46379;-54
2023/05/29 10:14:31;;;;;;;;;20.67;20.67;;;;;20.74;48.94;101184.88;4993433;28;45409;-55
2023/05/29 10:17:01;;;;;;;;;22.33;22.00;;;;;20.71;48.60;101182.44;4995031;28;45413;-57
2023/05/29 10:19:30;;;;;;;;;25.33;20.67;;;;;20.73;48.77;101171.63;4994734;28;45428;-56
2023/05/29 10:21:57;;;;;;;;;20.67;19.67;;;;;20.78;48.70;101177.50;4994730;28;46086;-55
2023/05/29 10:24:22;;;;;;;;;21.33;21.00;;;;;20.82;48.87;101167.44;4994508;28;45504;-55
2023/05/29 10:26:50;;;;;;;;;21.67;20.00;;;;;20.89;48.52;101166.91;4994801;28;45453;-51
2023/05/29 10:29:24;;;;;;;;;23.33;21.67;;;;;20.94;48.70;101175.47;4994794;28;45570;-58
2023/05/29 10:32:17;;;;;;;;;18.00;18.00;;;;;20.98;48.62;101172.59;4993888;28;45460;-55
2023/05/29 10:35:02;;;;;;;;;24.00;20.67;;;;;20.97;48.56;101153.00;4995022;28;45452;-54
2023/05/29 10:37:49;;;;;;;;;17.33;17.33;;;;;21.07;48.11;101158.59;4998154;28;45434;-58
2023/05/29 10:40:16;;;;;;;;;22.00;20.67;;;;;21.11;48.28;101163.59;4997969;28;45509;-51
2023/05/29 10:42:47;;;;;;;;;22.00;20.33;;;;;21.13;48.00;101163.50;4998099;28;46317;-54
2023/05/29 10:45:28;;;;;;;;;24.00;22.00;;;;;21.19;48.36;101163.91;4997825;28;45544;-54
2023/05/29 10:47:53;;;;;;;;;25.00;24.33;;;;;21.24;48.23;101162.72;4998022;28;45382;-56
2023/05/29 10:50:38;;;;;;;;;28.00;26.00;;;;;21.32;48.42;101165.72;4998321;28;45386;-52
2023/05/29 10:53:06;;;;;;;;;28.33;24.67;;;;;21.35;48.52;101169.00;4997867;28;45507;-56
2023/05/29 10:55:35;;;;;;;;;27.00;26.00;;;;;21.39;48.24;101167.03;4997506;28;45399;-57
2023/05/29 10:58:18;;;;;;;;;24.67;22.33;;;;;21.41;48.22;101165.06;4997636;28;45416;-54
2023/05/29 11:00:48;;;;;;;;;30.00;28.67;;;;;21.42;48.11;101153.41;4997417;28;45480;-56
2023/05/29 11:03:23;;;;;;;;;23.00;19.67;;;;;21.46;48.34;101156.72;4997556;28;45621;-56
2023/05/29 11:06:07;;;;;;;;;26.67;24.00;;;;;21.47;48.04;101155.78;4997357;28;45534;-54
2023/05/29 11:08:46;;;;;;;;;22.00;22.00;;;;;21.52;48.34;101153.59;4997515;28;45494;-55
2023/05/29 11:11:36;;;;;;;;;21.00;21.00;;;;;21.55;47.90;101154.25;4997594;28;45452;-56